Time;durP1;ratioP1;P1;durP2;ratioP2;P2;SDS_P1;SDS_P2;PMS_P1;PMS_P2;Temp;Humidity;BMP_temperature;BMP_pressure;BME280_temperature;BME280_humidity;BME280_pressure;Samples;Min_cycle;Max_cycle;Signal;HPM_P1;HPM_P2
2023/08/27 00:01:08;;;;;;;3.55;3.05;;;20.40;92.80;;;;;;10364678;28;20403;-64
2023/08/27 00:06:09;;;;;;;3.20;2.90;;;20.40;92.80;;;;;;10364671;28;20479;-64
2023/08/27 00:11:09;;;;;;;3.33;3.03;;;20.40;92.80;;;;;;10361889;28;20405;-65
2023/08/27 00:16:10;;;;;;;3.53;3.07;;;20.30;92.70;;;;;;10367728;28;20480;-65
2023/08/27 00:21:10;;;;;;;4.50;3.27;;;20.30;92.70;;;;;;10365275;28;20752;-65
2023/08/27 00:26:12;;;;;;;4.13;3.07;;;20.30;92.70;;;;;;10362913;28;20991;-65
2023/08/27 00:31:13;;;;;;;4.87;3.30;;;20.30;92.70;;;;;;10367975;28;20419;-65
2023/08/27 00:36:13;;;;;;;4.18;3.33;;;20.30;92.70;;;;;;10362188;28;20416;-65
2023/08/27 00:41:14;;;;;;;4.10;3.38;;;20.20;92.70;;;;;;10353984;28;20441;-65
2023/08/27 00:46:15;;;;;;;3.72;3.30;;;20.20;92.70;;;;;;10359504;28;20500;-64
2023/08/27 00:51:16;;;;;;;4.30;3.60;;;20.20;92.60;;;;;;10363045;28;20773;-65
2023/08/27 00:56:16;;;;;;;3.90;3.50;;;20.20;92.60;;;;;;10364559;28;20420;-63
2023/08/27 01:01:18;;;;;;;4.40;3.43;;;20.20;92.60;;;;;;10361745;28;20393;-65
2023/08/27 01:06:19;;;;;;;3.80;3.40;;;20.20;92.60;;;;;;10361017;28;20773;-65
2023/08/27 01:11:46;;;;;;;4.15;3.33;;;20.10;92.60;;;;;;10356363;28;20401;-65
2023/08/27 01:16:48;;;;;;;3.80;3.40;;;20.10;92.60;;;;;;10332049;28;20460;-65
2023/08/27 01:21:49;;;;;;;4.65;3.72;;;20.10;92.60;;;;;;10362563;28;20431;-65
2023/08/27 01:27:04;;;;;;;3.87;3.20;;;20.10;92.60;;;;;;10358940;28;20482;-65
2023/08/27 01:32:38;;;;;;;4.13;3.50;;;20.10;92.60;;;;;;10344519;28;20759;-65
2023/08/27 01:37:39;;;;;;;3.65;3.30;;;20.10;92.60;;;;;;10363718;28;20444;-65
2023/08/27 01:42:40;;;;;;;4.00;3.60;;;20.10;92.60;;;;;;10363435;28;20408;-65
2023/08/27 01:47:41;;;;;;;4.13;3.40;;;20.00;92.60;;;;;;10356625;28;20417;-64
2023/08/27 01:52:41;;;;;;;4.33;3.50;;;20.00;92.60;;;;;;10354376;28;20424;-65
2023/08/27 01:57:42;;;;;;;4.50;3.50;;;20.30;92.70;;;;;;10354765;28;20405;-65
2023/08/27 02:02:43;;;;;;;4.37;3.70;;;20.00;92.60;;;;;;10358966;28;20908;-63
2023/08/27 02:07:44;;;;;;;3.92;3.40;;;20.00;92.60;;;;;;10359234;28;20408;-65
2023/08/27 02:12:44;;;;;;;3.90;3.50;;;20.00;92.60;;;;;;10363035;28;20898;-65
2023/08/27 02:17:45;;;;;;;4.37;3.50;;;19.90;92.50;;;;;;10358016;28;20404;-62
2023/08/27 02:22:46;;;;;;;4.10;3.70;;;19.90;92.50;;;;;;10360029;28;20408;-65
2023/08/27 02:27:46;;;;;;;4.40;4.00;;;19.90;92.50;;;;;;10347307;28;20492;-66
2023/08/27 02:32:47;;;;;;;4.03;3.50;;;19.90;92.50;;;;;;10360614;28;20423;-63
2023/08/27 02:37:48;;;;;;;4.40;4.00;;;19.90;92.50;;;;;;10365131;28;20408;-64
2023/08/27 02:42:49;;;;;;;3.90;3.60;;;19.90;92.60;;;;;;10366408;28;20408;-66
2023/08/27 02:47:50;;;;;;;4.88;3.80;;;19.90;92.50;;;;;;10368289;28;20896;-65
2023/08/27 02:52:50;;;;;;;4.20;3.78;;;19.90;92.50;;;;;;10365085;28;20777;-65
2023/08/27 02:57:51;;;;;;;3.90;3.60;;;19.90;92.50;;;;;;10367512;28;20413;-64
2023/08/27 03:02:52;;;;;;;3.85;3.55;;;19.80;92.50;;;;;;10363688;28;20414;-65
2023/08/27 03:07:52;;;;;;;4.18;3.78;;;19.80;92.50;;;;;;10353693;28;21142;-65
2023/08/27 03:12:53;;;;;;;4.17;3.73;;;19.80;92.50;;;;;;10362008;28;20970;-63
2023/08/27 03:17:53;;;;;;;4.10;3.70;;;19.80;92.50;;;;;;10364307;28;20428;-65
2023/08/27 03:22:54;;;;;;;4.13;3.73;;;19.80;92.50;;;;;;10364442;28;20781;-66
2023/08/27 03:27:54;;;;;;;4.40;4.00;;;19.80;92.60;;;;;;10357189;28;20746;-64
2023/08/27 03:32:55;;;;;;;4.00;3.60;;;19.80;92.60;;;;;;10361711;28;20936;-64
2023/08/27 03:37:56;;;;;;;4.43;4.03;;;19.70;92.60;;;;;;10344223;28;20404;-64
2023/08/27 03:42:56;;;;;;;4.20;3.80;;;19.70;92.60;;;;;;10363157;28;20409;-65
2023/08/27 03:47:57;;;;;;;4.70;4.00;;;19.70;92.60;;;;;;10360848;28;20467;-65
2023/08/27 03:52:58;;;;;;;4.57;4.18;;;19.70;92.60;;;;;;10363398;28;20423;-65
2023/08/27 03:57:58;;;;;;;4.22;3.80;;;19.70;92.60;;;;;;10362327;28;20490;-65
2023/08/27 04:02:59;;;;;;;4.60;4.10;;;19.60;92.60;;;;;;10346796;28;20408;-64
2023/08/27 04:08:06;;;;;;;4.10;3.70;;;19.70;92.60;;;;;;10360882;28;20397;-65
2023/08/27 04:13:07;;;;;;;4.20;3.80;;;19.70;92.60;;;;;;10359215;28;20413;-65
2023/08/27 04:18:07;;;;;;;4.55;4.15;;;19.70;92.60;;;;;;10359579;28;20404;-65
2023/08/27 04:23:08;;;;;;;4.35;3.95;;;19.60;92.60;;;;;;10354241;28;20416;-64
2023/08/27 04:28:08;;;;;;;4.22;3.92;;;19.60;92.60;;;;;;10343543;28;20401;-64
2023/08/27 04:33:12;;;;;;;4.07;3.67;;;19.60;92.60;;;;;;10358716;28;20409;-63
2023/08/27 04:38:13;;;;;;;5.57;4.25;;;19.60;92.60;;;;;;10358347;28;20412;-63
2023/08/27 04:43:13;;;;;;;8.77;4.18;;;19.60;92.70;;;;;;10341709;28;20451;-65
2023/08/27 04:48:14;;;;;;;3.87;3.47;;;19.50;92.70;;;;;;10362391;28;20485;-65
2023/08/27 04:53:15;;;;;;;3.70;3.30;;;19.50;92.70;;;;;;10357351;28;20416;-65
2023/08/27 04:58:16;;;;;;;4.55;3.70;;;19.60;92.90;;;;;;10360034;28;20429;-64
2023/08/27 05:03:16;;;;;;;3.72;3.30;;;19.50;92.70;;;;;;10362388;28;20804;-64
2023/08/27 05:08:17;;;;;;;4.93;3.60;;;19.50;92.70;;;;;;10370084;28;20411;-63
2023/08/27 05:13:17;;;;;;;4.00;3.30;;;19.50;92.70;;;;;;10361773;28;20958;-65
2023/08/27 05:18:18;;;;;;;4.43;3.22;;;19.50;92.70;;;;;;10357046;28;20446;-65
2023/08/27 05:23:22;;;;;;;4.50;3.50;;;19.50;92.70;;;;;;10360639;28;20416;-64
2023/08/27 05:28:22;;;;;;;5.13;3.50;;;19.50;92.70;;;;;;10365738;28;20415;-64
2023/08/27 05:33:23;;;;;;;4.03;3.20;;;19.50;92.70;;;;;;10361429;28;20413;-64
2023/08/27 05:38:24;;;;;;;3.95;3.22;;;19.50;92.70;;;;;;10356867;28;21053;-65
2023/08/27 05:43:25;;;;;;;3.87;3.07;;;19.50;92.70;;;;;;10355582;28;20409;-65
2023/08/27 05:48:26;;;;;;;4.00;3.50;;;19.40;92.70;;;;;;10359892;28;20407;-65
2023/08/27 05:53:27;;;;;;;4.33;3.33;;;19.50;92.80;;;;;;10364054;28;20415;-64
2023/08/27 05:58:27;;;;;;;4.05;3.50;;;19.50;92.80;;;;;;10357135;28;20496;-63
2023/08/27 06:03:28;;;;;;;4.30;3.22;;;19.50;92.90;;;;;;10343051;28;20428;-65
2023/08/27 06:08:29;;;;;;;3.47;3.17;;;19.50;92.90;;;;;;10355077;28;20503;-63
2023/08/27 06:13:32;;;;;;;3.37;3.07;;;19.50;92.90;;;;;;10368932;28;20427;-64
2023/08/27 06:18:33;;;;;;;4.10;3.17;;;19.50;92.90;;;;;;10371516;28;20406;-65
2023/08/27 06:23:34;;;;;;;4.77;3.20;;;19.50;92.90;;;;;;10350398;28;20427;-65
2023/08/27 06:28:34;;;;;;;3.97;2.90;;;19.50;92.90;;;;;;10373106;28;20712;-65
2023/08/27 06:33:38;;;;;;;5.22;3.10;;;19.40;92.90;;;;;;10372680;28;20432;-63
2023/08/27 06:38:39;;;;;;;4.22;3.20;;;19.50;92.90;;;;;;10366977;28;20507;-65
2023/08/27 06:43:39;;;;;;;4.73;3.00;;;19.50;92.90;;;;;;10368044;28;20432;-63
2023/08/27 06:48:40;;;;;;;3.40;3.10;;;19.50;92.90;;;;;;10369649;28;20632;-63
2023/08/27 06:53:40;;;;;;;3.83;3.20;;;19.50;93.00;;;;;;10369317;28;21397;-64
2023/08/27 06:58:41;;;;;;;3.60;3.00;;;19.50;92.90;;;;;;10368308;28;20834;-63
2023/08/27 07:03:42;;;;;;;3.37;3.03;;;19.50;92.90;;;;;;10365012;28;20422;-64
2023/08/27 07:08:43;;;;;;;3.63;2.92;;;19.50;92.90;;;;;;10368648;28;20451;-64
2023/08/27 07:13:44;;;;;;;5.70;2.90;;;19.50;92.90;;;;;;10370067;28;20504;-65
2023/08/27 07:18:45;;;;;;;3.87;2.90;;;19.50;92.90;;;;;;10367830;28;20404;-64
2023/08/27 07:23:46;;;;;;;4.07;3.07;;;19.50;92.90;;;;;;10368553;28;20757;-65
2023/08/27 07:28:46;;;;;;;4.53;3.20;;;19.50;92.80;;;;;;10367795;28;20396;-64
2023/08/27 07:33:47;;;;;;;2.87;2.50;;;19.50;92.80;;;;;;10366996;28;20791;-64
2023/08/27 07:38:48;;;;;;;4.20;2.80;;;19.60;92.80;;;;;;10349026;28;20603;-64
2023/08/27 07:43:48;;;;;;;3.55;2.97;;;19.60;92.80;;;;;;10364044;28;20424;-64
2023/08/27 07:48:49;;;;;;;3.23;2.80;;;19.60;92.80;;;;;;10367470;28;20416;-63
2023/08/27 07:53:50;;;;;;;2.90;2.70;;;19.60;92.80;;;;;;10363637;28;20456;-63
2023/08/27 07:58:51;;;;;;;3.95;3.20;;;19.70;92.80;;;;;;10365171;28;20491;-64
2023/08/27 08:03:52;;;;;;;2.80;2.50;;;19.60;92.70;;;;;;10364606;28;20471;-65
2023/08/27 08:08:53;;;;;;;3.23;2.77;;;19.70;92.70;;;;;;10364098;28;20823;-64
2023/08/27 08:13:53;;;;;;;3.20;2.75;;;19.70;92.70;;;;;;10362540;28;20409;-64
2023/08/27 08:18:54;;;;;;;3.90;2.90;;;19.70;92.70;;;;;;10363183;28;20401;-65
2023/08/27 08:23:55;;;;;;;3.23;2.83;;;19.70;92.70;;;;;;10363949;28;20492;-65
2023/08/27 08:28:55;;;;;;;3.40;2.87;;;19.70;93.00;;;;;;10362159;28;20492;-64
2023/08/27 08:33:56;;;;;;;3.67;3.30;;;19.80;92.80;;;;;;10360412;28;20443;-65
2023/08/27 08:38:57;;;;;;;4.50;3.40;;;19.80;92.80;;;;;;10350136;28;20401;-65
2023/08/27 08:44:24;;;;;;;3.50;3.20;;;19.80;92.80;;;;;;10361322;28;20785;-65
2023/08/27 08:49:29;;;;;;;3.90;3.33;;;19.80;92.70;;;;;;10360172;28;20417;-64
2023/08/27 08:54:29;;;;;;;3.77;3.27;;;19.80;92.80;;;;;;10361271;28;20416;-64
2023/08/27 08:59:32;;;;;;;3.67;3.33;;;19.90;92.80;;;;;;10361709;28;20404;-64
2023/08/27 09:04:34;;;;;;;4.10;3.23;;;19.90;92.80;;;;;;10360310;28;20478;-65
2023/08/27 09:09:38;;;;;;;4.18;3.60;;;19.90;92.80;;;;;;10360745;28;20495;-65
2023/08/27 09:14:38;;;;;;;4.65;3.70;;;19.90;92.80;;;;;;10359485;28;20789;-64
2023/08/27 09:19:39;;;;;;;4.53;3.60;;;20.00;92.80;;;;;;10359731;28;21266;-65
2023/08/27 09:24:40;;;;;;;4.65;3.70;;;20.00;92.80;;;;;;10359380;28;20407;-65
2023/08/27 09:29:42;;;;;;;3.90;3.50;;;20.00;92.70;;;;;;10358503;28;20403;-64
2023/08/27 09:34:43;;;;;;;4.30;3.83;;;20.10;92.70;;;;;;10339976;28;20410;-64
2023/08/27 09:39:45;;;;;;;4.37;3.77;;;20.20;92.60;;;;;;10361356;28;20408;-64
2023/08/27 09:44:54;;;;;;;4.82;4.00;;;20.20;92.60;;;;;;10360176;28;20906;-64
2023/08/27 09:49:55;;;;;;;4.43;4.00;;;20.20;92.50;;;;;;10342662;28;20539;-64
2023/08/27 09:54:55;;;;;;;4.50;3.60;;;20.20;92.50;;;;;;10359015;28;20425;-64
2023/08/27 09:59:56;;;;;;;5.53;3.90;;;20.20;92.50;;;;;;10360648;28;20411;-63
2023/08/27 10:04:57;;;;;;;4.37;3.80;;;20.20;92.50;;;;;;10343571;28;20400;-64
2023/08/27 10:09:59;;;;;;;4.33;3.93;;;20.20;92.50;;;;;;10359424;28;20404;-64
2023/08/27 10:15:01;;;;;;;5.15;4.07;;;20.20;92.50;;;;;;10358691;28;20413;-64
2023/08/27 10:20:03;;;;;;;4.78;4.28;;;20.20;92.50;;;;;;10359171;28;20392;-64
2023/08/27 10:25:05;;;;;;;4.68;4.20;;;20.20;92.50;;;;;;10340892;28;20404;-64
2023/08/27 10:30:07;;;;;;;4.95;4.40;;;20.20;92.50;;;;;;10356955;28;20835;-65
2023/08/27 10:35:09;;;;;;;5.07;4.40;;;20.30;92.50;;;;;;10359402;28;20775;-65
2023/08/27 10:40:12;;;;;;;4.65;4.25;;;20.30;92.50;;;;;;10358244;28;20397;-66
2023/08/27 10:45:20;;;;;;;4.95;4.40;;;20.30;92.50;;;;;;10357268;28;20413;-66
2023/08/27 10:50:21;;;;;;;5.03;4.35;;;20.30;92.50;;;;;;10357855;28;20416;-65
2023/08/27 10:55:37;;;;;;;5.07;4.57;;;20.30;92.50;;;;;;10354927;28;20469;-64
2023/08/27 11:01:03;;;;;;;4.90;4.40;;;20.30;92.60;;;;;;10361364;28;20451;-65
2023/08/27 11:06:12;;;;;;;5.40;4.78;;;20.30;92.60;;;;;;10370537;28;20416;-65
2023/08/27 11:11:13;;;;;;;6.13;5.30;;;20.30;92.60;;;;;;10372917;28;20404;-64
2023/08/27 11:16:15;;;;;;;5.60;5.10;;;20.40;92.60;;;;;;10367105;28;20527;-65
2023/08/27 11:21:21;;;;;;;8.43;5.55;;;20.30;92.60;;;;;;10366892;28;20441;-67
2023/08/27 11:26:22;;;;;;;7.10;5.38;;;20.30;92.70;;;;;;10374324;28;20404;-63
2023/08/27 11:31:23;;;;;;;6.38;5.43;;;20.20;92.90;;;;;;10371344;28;20415;-68
2023/08/27 11:36:24;;;;;;;6.03;5.45;;;20.20;93.00;;;;;;10364050;28;20404;-66
2023/08/27 11:41:24;;;;;;;10.80;6.15;;;20.30;93.20;;;;;;10369167;28;20416;-65
2023/08/27 11:46:25;;;;;;;6.85;5.80;;;20.30;93.20;;;;;;10365633;28;20416;-67
2023/08/27 11:51:27;;;;;;;5.73;5.00;;;20.30;93.30;;;;;;10343773;28;20428;-65
2023/08/27 11:56:28;;;;;;;5.80;4.70;;;20.30;93.00;;;;;;10364569;28;20506;-67
2023/08/27 12:01:29;;;;;;;6.47;4.78;;;20.20;92.70;;;;;;10363378;28;20490;-66
2023/08/27 12:06:30;;;;;;;6.00;4.70;;;20.40;92.50;;;;;;10368802;28;20405;-66
2023/08/27 12:11:33;;;;;;;6.32;4.22;;;20.40;92.50;;;;;;10362862;28;20405;-67
2023/08/27 12:16:35;;;;;;;4.83;4.33;;;20.40;92.20;;;;;;10350684;28;20486;-67
2023/08/27 12:21:53;;;;;;;5.85;4.72;;;20.40;92.30;;;;;;10353220;28;20428;-67
2023/08/27 12:26:55;;;;;;;5.60;3.97;;;20.40;92.40;;;;;;10352721;28;20431;-66
2023/08/27 12:32:11;;;;;;;4.07;3.50;;;20.40;92.20;;;;;;10349915;28;20407;-67
2023/08/27 12:37:13;;;;;;;4.10;3.60;;;20.40;92.00;;;;;;10361916;28;20859;-67
2023/08/27 12:42:15;;;;;;;4.15;3.75;;;20.40;92.00;;;;;;10362493;28;20419;-68
2023/08/27 12:47:16;;;;;;;4.13;3.73;;;20.40;92.00;;;;;;10351545;28;20539;-67
2023/08/27 12:52:17;;;;;;;4.00;3.53;;;20.40;92.10;;;;;;10362628;28;20567;-68
2023/08/27 12:57:18;;;;;;;5.10;3.67;;;20.30;92.10;;;;;;10361886;28;20412;-70
2023/08/27 13:02:19;;;;;;;5.22;3.95;;;20.30;92.30;;;;;;10359624;28;20405;-67
2023/08/27 13:07:20;;;;;;;6.10;3.83;;;20.40;92.20;;;;;;10364377;28;20828;-66
2023/08/27 13:12:20;;;;;;;4.27;3.50;;;20.40;92.20;;;;;;10364518;28;20412;-68
2023/08/27 13:17:21;;;;;;;3.90;3.40;;;20.50;92.20;;;;;;10347350;28;20474;-67
2023/08/27 13:22:22;;;;;;;6.30;3.33;;;20.50;92.20;;;;;;10361736;28;20407;-66
2023/08/27 13:27:23;;;;;;;4.93;3.63;;;20.60;92.10;;;;;;10356380;28;20419;-67
2023/08/27 13:32:24;;;;;;;3.65;3.30;;;20.70;92.10;;;;;;10360926;28;20511;-67
2023/08/27 13:37:24;;;;;;;3.67;3.05;;;20.70;92.00;;;;;;10358767;28;20503;-67
2023/08/27 13:42:36;;;;;;;3.10;2.80;;;20.80;92.10;;;;;;10346850;28;20738;-67
2023/08/27 13:47:37;;;;;;;2.92;2.40;;;20.70;92.00;;;;;;10366091;28;20409;-67
2023/08/27 13:52:37;;;;;;;3.33;2.30;;;20.60;92.00;;;;;;10363363;28;20416;-66
2023/08/27 13:57:38;;;;;;;3.60;1.90;;;20.60;92.10;;;;;;10361422;28;20467;-67
2023/08/27 14:02:39;;;;;;;3.30;2.10;;;20.50;92.30;;;;;;10363301;28;20412;-67
2023/08/27 14:07:40;;;;;;;3.45;1.90;;;20.50;92.40;;;;;;10358092;28;20408;-66
2023/08/27 14:12:41;;;;;;;2.90;2.10;;;20.50;92.60;;;;;;10359413;28;20405;-68
2023/08/27 14:17:41;;;;;;;2.43;1.80;;;20.40;92.70;;;;;;10362251;28;20533;-68
2023/08/27 14:22:42;;;;;;;5.10;2.03;;;20.40;92.70;;;;;;10362414;28;20815;-67
2023/08/27 14:27:42;;;;;;;2.43;1.70;;;20.50;92.80;;;;;;10360918;28;20400;-67
2023/08/27 14:32:43;;;;;;;3.60;2.00;;;20.50;92.80;;;;;;10361290;28;20488;-66
2023/08/27 14:37:45;;;;;;;2.67;1.63;;;20.40;92.80;;;;;;10366778;28;20408;-68
2023/08/27 14:42:45;;;;;;;2.33;1.67;;;20.40;92.70;;;;;;10366385;28;20766;-65
2023/08/27 14:47:46;;;;;;;2.77;1.60;;;20.40;92.70;;;;;;10369730;28;20401;-66
2023/08/27 14:52:47;;;;;;;2.97;1.60;;;20.40;92.60;;;;;;10366603;28;20420;-66
2023/08/27 14:57:51;;;;;;;2.60;1.60;;;20.40;92.40;;;;;;10363536;28;20443;-67
2023/08/27 15:02:54;;;;;;;3.35;1.40;;;20.40;92.30;;;;;;10364592;28;20425;-66
2023/08/27 15:07:54;;;;;;;2.80;1.30;;;20.40;92.40;;;;;;10366079;28;20400;-67
2023/08/27 15:12:55;;;;;;;2.27;1.20;;;20.40;92.60;;;;;;10364866;28;20404;-66
2023/08/27 15:17:56;;;;;;;3.27;1.23;;;20.40;92.70;;;;;;10364256;28;20655;-66
2023/08/27 15:22:56;;;;;;;2.77;1.20;;;20.30;92.70;;;;;;10367303;28;20397;-66
2023/08/27 15:27:57;;;;;;;3.30;1.30;;;20.30;92.80;;;;;;10348083;28;20769;-66
2023/08/27 15:32:58;;;;;;;3.35;1.33;;;20.30;93.00;;;;;;10347959;28;20644;-66
2023/08/27 15:37:59;;;;;;;2.22;1.30;;;20.20;93.00;;;;;;10364003;28;20447;-66
2023/08/27 15:43:31;;;;;;;3.60;1.30;;;20.20;92.90;;;;;;10366066;28;20931;-65
2023/08/27 15:48:32;;;;;;;2.75;1.30;;;20.30;92.90;;;;;;10347182;28;20500;-67
2023/08/27 15:53:32;;;;;;;2.63;1.57;;;20.30;92.70;;;;;;10361746;28;20415;-66
2023/08/27 15:58:33;;;;;;;2.20;1.50;;;20.30;92.70;;;;;;10361286;28;20400;-66
2023/08/27 16:03:33;;;;;;;2.53;1.40;;;20.30;92.70;;;;;;10361981;28;20442;-65
2023/08/27 16:08:34;;;;;;;2.20;1.47;;;20.40;92.60;;;;;;10363524;28;20407;-66
2023/08/27 16:13:37;;;;;;;1.97;1.40;;;20.40;92.80;;;;;;10361971;28;20692;-67
2023/08/27 16:18:37;;;;;;;3.22;1.65;;;20.50;92.90;;;;;;10363170;28;20389;-65
2023/08/27 16:23:38;;;;;;;4.43;1.50;;;20.40;93.00;;;;;;10364303;28;20405;-66
2023/08/27 16:28:39;;;;;;;3.60;1.50;;;20.40;93.20;;;;;;10361112;28;20503;-66
2023/08/27 16:33:39;;;;;;;2.23;1.60;;;20.30;93.20;;;;;;10358529;28;20412;-66
2023/08/27 16:38:40;;;;;;;2.27;1.47;;;20.30;93.30;;;;;;10360255;28;20400;-65
2023/08/27 16:43:41;;;;;;;2.60;1.60;;;20.30;93.30;;;;;;10355801;28;20401;-65
2023/08/27 16:48:42;;;;;;;2.97;1.73;;;20.30;93.40;;;;;;10360038;28;20416;-65
2023/08/27 16:53:42;;;;;;;2.10;1.60;;;20.30;93.50;;;;;;10355452;28;20422;-66
2023/08/27 16:58:43;;;;;;;3.27;1.50;;;20.30;93.50;;;;;;10357510;28;20443;-66
2023/08/27 17:03:43;;;;;;;2.13;1.60;;;20.40;93.50;;;;;;10361470;28;20420;-64
2023/08/27 17:08:44;;;;;;;3.10;1.40;;;20.20;93.40;;;;;;10337919;28;20403;-66
2023/08/27 17:13:46;;;;;;;4.00;1.50;;;20.20;93.30;;;;;;10343805;28;20839;-66
2023/08/27 17:18:46;;;;;;;2.83;1.50;;;20.30;93.40;;;;;;10360114;28;20407;-66
2023/08/27 17:23:47;;;;;;;1.60;1.40;;;20.20;93.40;;;;;;10361028;28;20911;-69
2023/08/27 17:28:47;;;;;;;3.10;1.30;;;20.20;93.40;;;;;;10357422;28;20401;-66
2023/08/27 17:33:52;;;;;;;2.58;1.50;;;20.20;93.40;;;;;;10358544;28;20419;-67
2023/08/27 17:38:53;;;;;;;2.33;1.33;;;20.20;93.40;;;;;;10358797;28;20485;-66
2023/08/27 17:43:53;;;;;;;3.45;1.40;;;20.10;93.70;;;;;;10352870;28;20405;-65
2023/08/27 17:48:54;;;;;;;2.87;1.87;;;20.10;93.50;;;;;;10354227;28;20416;-64
2023/08/27 17:53:55;;;;;;;3.53;1.40;;;20.10;93.50;;;;;;10354796;28;20463;-64
2023/08/27 17:58:55;;;;;;;5.67;1.50;;;20.00;93.50;;;;;;10357859;28;20403;-65
2023/08/27 18:03:56;;;;;;;2.20;1.30;;;20.00;93.50;;;;;;10356138;28;20432;-63
2023/08/27 18:08:57;;;;;;;1.70;1.40;;;20.10;93.50;;;;;;10361455;28;20871;-66
2023/08/27 18:13:57;;;;;;;2.10;1.20;;;20.10;93.50;;;;;;10352580;28;20413;-65
2023/08/27 18:18:58;;;;;;;2.23;1.30;;;20.10;93.40;;;;;;10374900;28;20407;-64
2023/08/27 18:23:58;;;;;;;1.55;1.15;;;20.00;93.40;;;;;;10359428;28;20428;-66
2023/08/27 18:28:59;;;;;;;4.60;1.40;;;20.00;93.40;;;;;;10368295;28;20916;-64
2023/08/27 18:34:00;;;;;;;2.13;1.40;;;20.00;93.40;;;;;;10364761;28;20408;-65
2023/08/27 18:39:00;;;;;;;1.85;1.20;;;20.00;93.40;;;;;;10356192;28;21158;-64
2023/08/27 18:44:01;;;;;;;2.92;1.48;;;20.00;93.40;;;;;;10364012;28;20408;-65
2023/08/27 18:49:02;;;;;;;1.93;1.37;;;20.00;93.40;;;;;;10325221;28;20420;-66
2023/08/27 18:54:03;;;;;;;2.50;1.40;;;19.90;93.40;;;;;;10359759;28;20610;-63
2023/08/27 18:59:04;;;;;;;1.73;1.20;;;19.90;93.40;;;;;;10349697;28;20401;-64
2023/08/27 19:04:04;;;;;;;2.30;1.42;;;19.90;93.40;;;;;;10363276;28;20409;-65
2023/08/27 19:09:06;;;;;;;2.30;1.50;;;19.90;93.40;;;;;;10363885;28;20893;-65
2023/08/27 19:14:06;;;;;;;1.40;1.27;;;19.80;93.30;;;;;;10358001;28;20673;-65
2023/08/27 19:19:07;;;;;;;1.93;1.20;;;19.80;93.30;;;;;;10359402;28;20893;-65
2023/08/27 19:24:09;;;;;;;1.40;1.20;;;19.80;93.30;;;;;;10358877;28;20409;-65
2023/08/27 19:29:10;;;;;;;1.90;1.27;;;19.80;93.30;;;;;;10356308;28;20808;-65
2023/08/27 19:34:10;;;;;;;2.92;1.30;;;19.80;93.30;;;;;;10357418;28;20422;-64
2023/08/27 19:39:12;;;;;;;1.70;1.30;;;19.80;93.30;;;;;;10366840;28;20419;-65
2023/08/27 19:44:13;;;;;;;1.85;1.50;;;19.70;93.30;;;;;;10343776;28;20467;-65
2023/08/27 19:49:14;;;;;;;1.47;1.30;;;19.70;93.30;;;;;;10355690;28;20412;-65
2023/08/27 19:54:14;;;;;;;2.43;1.50;;;19.70;93.30;;;;;;10356439;28;20417;-63
2023/08/27 19:59:16;;;;;;;2.10;1.40;;;19.70;93.30;;;;;;10355301;28;20483;-65
2023/08/27 20:04:17;;;;;;;1.90;1.30;;;19.70;93.30;;;;;;10355523;28;20474;-65
2023/08/27 20:09:19;;;;;;;3.60;1.60;;;19.60;93.30;;;;;;10339003;28;20450;-64
2023/08/27 20:14:19;;;;;;;2.00;1.40;;;19.60;93.30;;;;;;10359073;28;20443;-67
2023/08/27 20:19:20;;;;;;;2.00;1.30;;;19.60;93.30;;;;;;10351623;28;20451;-65
2023/08/27 20:24:21;;;;;;;2.17;1.50;;;19.60;93.60;;;;;;10358739;28;20406;-63
2023/08/27 20:29:21;;;;;;;3.07;1.50;;;19.60;93.70;;;;;;10359511;28;20400;-65
2023/08/27 20:34:22;;;;;;;2.73;1.37;;;19.60;93.70;;;;;;10354172;28;20422;-65
2023/08/27 20:39:22;;;;;;;2.40;1.50;;;19.50;93.70;;;;;;10356627;28;20948;-65
2023/08/27 20:44:25;;;;;;;2.10;1.70;;;19.60;93.70;;;;;;10357260;28;20412;-65
2023/08/27 20:49:26;;;;;;;2.67;1.55;;;19.50;93.70;;;;;;10341338;28;20420;-64
2023/08/27 20:54:27;;;;;;;2.87;1.47;;;19.50;93.70;;;;;;10354694;28;20456;-65
2023/08/27 20:59:27;;;;;;;2.43;1.50;;;19.50;93.60;;;;;;10350896;28;20400;-64
2023/08/27 21:04:28;;;;;;;3.00;1.70;;;19.50;93.70;;;;;;10352586;28;20412;-64
2023/08/27 21:09:28;;;;;;;4.20;2.00;;;19.40;93.70;;;;;;10338880;28;20414;-66
2023/08/27 21:14:29;;;;;;;4.07;1.77;;;19.40;93.70;;;;;;10350287;28;20414;-64
2023/08/27 21:19:31;;;;;;;3.23;1.83;;;19.40;93.70;;;;;;10350474;28;20973;-65
2023/08/27 21:24:31;;;;;;;3.43;1.90;;;19.40;93.70;;;;;;10355049;28;20696;-66
2023/08/27 21:29:32;;;;;;;3.55;1.80;;;19.40;93.70;;;;;;10354166;28;20580;-64
2023/08/27 21:34:32;;;;;;;1.70;1.60;;;19.30;93.80;;;;;;10355729;28;20768;-64
2023/08/27 21:39:33;;;;;;;2.45;1.70;;;19.30;93.60;;;;;;10355056;28;20462;-65
2023/08/27 21:44:34;;;;;;;2.42;1.60;;;19.30;93.60;;;;;;10353160;28;20417;-65
2023/08/27 21:49:35;;;;;;;2.65;1.75;;;19.20;93.50;;;;;;10355747;28;20415;-69
2023/08/27 21:54:36;;;;;;;2.22;1.70;;;19.30;93.50;;;;;;10348510;28;20837;-65
2023/08/27 21:59:37;;;;;;;1.90;1.70;;;19.30;93.50;;;;;;10349757;28;20835;-64
2023/08/27 22:04:38;;;;;;;3.00;1.83;;;19.20;93.40;;;;;;10353803;28;20504;-65
2023/08/27 22:09:38;;;;;;;2.80;2.05;;;19.20;93.40;;;;;;10357743;28;20410;-65
2023/08/27 22:14:39;;;;;;;3.15;1.90;;;19.20;93.40;;;;;;10356872;28;20432;-65
2023/08/27 22:19:40;;;;;;;2.70;1.80;;;19.20;93.40;;;;;;10331935;28;20416;-65
2023/08/27 22:24:41;;;;;;;2.90;2.00;;;19.20;93.30;;;;;;10357763;28;20749;-65
2023/08/27 22:29:42;;;;;;;3.92;2.00;;;19.10;93.30;;;;;;10351552;28;20392;-65
2023/08/27 22:34:44;;;;;;;3.60;2.10;;;19.10;93.30;;;;;;10351908;28;20422;-64
2023/08/27 22:39:45;;;;;;;2.33;2.03;;;19.10;93.30;;;;;;10352332;28;20431;-63
2023/08/27 22:44:45;;;;;;;2.60;2.10;;;19.10;93.30;;;;;;10354506;28;20454;-65
2023/08/27 22:49:46;;;;;;;2.67;2.20;;;19.10;93.30;;;;;;10338544;28;20405;-65
2023/08/27 22:54:47;;;;;;;3.00;2.40;;;19.10;93.30;;;;;;10361294;28;20416;-65
2023/08/27 22:59:48;;;;;;;3.28;2.15;;;19.00;93.30;;;;;;10363583;28;20948;-65
2023/08/27 23:04:49;;;;;;;3.90;2.23;;;19.00;93.30;;;;;;10363266;28;20400;-64
2023/08/27 23:09:49;;;;;;;3.42;2.15;;;19.00;93.30;;;;;;10369783;28;20760;-64
2023/08/27 23:14:50;;;;;;;3.20;2.50;;;19.00;93.30;;;;;;10361576;28;20491;-65
2023/08/27 23:19:51;;;;;;;2.85;2.40;;;19.40;93.30;;;;;;10365230;28;20539;-65
2023/08/27 23:24:51;;;;;;;2.70;2.42;;;19.00;93.20;;;;;;10365071;28;20761;-65
2023/08/27 23:29:52;;;;;;;2.78;2.50;;;19.00;93.20;;;;;;10362549;28;20889;-65
2023/08/27 23:34:52;;;;;;;3.33;2.43;;;19.00;93.20;;;;;;10361839;28;20491;-64
2023/08/27 23:39:53;;;;;;;2.93;2.57;;;18.90;93.20;;;;;;10362080;28;20400;-65
2023/08/27 23:44:54;;;;;;;2.70;2.50;;;18.90;93.20;;;;;;10349989;28;20419;-64
2023/08/27 23:49:54;;;;;;;3.10;2.80;;;18.90;93.20;;;;;;10368375;28;20423;-64
2023/08/27 23:54:55;;;;;;;4.03;2.87;;;18.90;93.20;;;;;;10358533;28;20395;-65
2023/08/27 23:59:59;;;;;;;3.40;2.90;;;18.90;93.20;;;;;;10363111;28;20401;-62
